sensor_id;sensor_type;location;lat;lon;timestamp;temperature;humidity
285;DHT22;127;48.770;9.212;2023-09-19T00:00:47;16.60;99.90
285;DHT22;127;48.770;9.212;2023-09-19T00:03:16;16.60;99.90
285;DHT22;127;48.770;9.212;2023-09-19T00:05:45;16.70;99.90
285;DHT22;127;48.770;9.212;2023-09-19T00:08:16;16.70;99.90
285;DHT22;127;48.770;9.212;2023-09-19T00:10:50;16.70;99.90
285;DHT22;127;48.770;9.212;2023-09-19T00:13:20;16.70;99.90
285;DHT22;127;48.770;9.212;2023-09-19T00:15:50;16.70;99.90
285;DHT22;127;48.770;9.212;2023-09-19T00:18:21;16.60;99.90
285;DHT22;127;48.770;9.212;2023-09-19T00:20:57;16.50;99.90
285;DHT22;127;48.770;9.212;2023-09-19T00:23:26;16.50;99.90
285;DHT22;127;48.770;9.212;2023-09-19T00:25:58;16.40;99.90
285;DHT22;127;48.770;9.212;2023-09-19T00:28:27;16.40;99.90
285;DHT22;127;48.770;9.212;2023-09-19T00:30:57;16.40;99.90
285;DHT22;127;48.770;9.212;2023-09-19T00:33:27;16.50;99.90
285;DHT22;127;48.770;9.212;2023-09-19T00:35:57;16.40;99.90
285;DHT22;127;48.770;9.212;2023-09-19T00:38:27;16.30;99.90
285;DHT22;127;48.770;9.212;2023-09-19T00:41:00;16.30;99.90
285;DHT22;127;48.770;9.212;2023-09-19T00:43:31;16.40;99.90
285;DHT22;127;48.770;9.212;2023-09-19T00:46:01;16.30;99.90
285;DHT22;127;48.770;9.212;2023-09-19T00:48:32;16.30;99.90
285;DHT22;127;48.770;9.212;2023-09-19T00:51:03;16.30;99.90
285;DHT22;127;48.770;9.212;2023-09-19T00:53:34;16.40;99.90
285;DHT22;127;48.770;9.212;2023-09-19T00:56:05;16.40;99.90
285;DHT22;127;48.770;9.212;2023-09-19T00:58:36;16.30;99.90
285;DHT22;127;48.770;9.212;2023-09-19T01:01:05;16.30;99.90
285;DHT22;127;48.770;9.212;2023-09-19T01:03:37;16.20;99.90
285;DHT22;127;48.770;9.212;2023-09-19T01:06:06;16.20;99.90
285;DHT22;127;48.770;9.212;2023-09-19T01:08:36;16.20;99.90
285;DHT22;127;48.770;9.212;2023-09-19T01:11:13;16.30;99.90
285;DHT22;127;48.770;9.212;2023-09-19T01:13:55;16.30;99.90
285;DHT22;127;48.770;9.212;2023-09-19T01:16:37;16.30;99.90
285;DHT22;127;48.770;9.212;2023-09-19T01:22:13;16.30;99.90
285;DHT22;127;48.770;9.212;2023-09-19T01:28:09;16.30;99.90
285;DHT22;127;48.770;9.212;2023-09-19T01:30:46;16.30;99.90
285;DHT22;127;48.770;9.212;2023-09-19T01:33:17;16.40;99.90
285;DHT22;127;48.770;9.212;2023-09-19T01:35:45;16.30;99.90
285;DHT22;127;48.770;9.212;2023-09-19T01:38:15;16.40;99.90
285;DHT22;127;48.770;9.212;2023-09-19T01:40:51;16.40;99.90
285;DHT22;127;48.770;9.212;2023-09-19T01:43:30;16.40;99.90
285;DHT22;127;48.770;9.212;2023-09-19T01:46:06;16.40;99.90
285;DHT22;127;48.770;9.212;2023-09-19T01:48:41;16.50;99.90
285;DHT22;127;48.770;9.212;2023-09-19T01:51:16;16.50;99.90
285;DHT22;127;48.770;9.212;2023-09-19T01:53:53;16.50;99.90
285;DHT22;127;48.770;9.212;2023-09-19T01:56:29;16.50;99.90
285;DHT22;127;48.770;9.212;2023-09-19T01:59:05;16.50;99.90
285;DHT22;127;48.770;9.212;2023-09-19T02:01:38;16.60;99.90
285;DHT22;127;48.770;9.212;2023-09-19T02:04:10;16.60;99.90
285;DHT22;127;48.770;9.212;2023-09-19T02:06:40;16.60;99.90
285;DHT22;127;48.770;9.212;2023-09-19T02:09:09;16.60;99.90
285;DHT22;127;48.770;9.212;2023-09-19T02:11:38;16.60;99.90
285;DHT22;127;48.770;9.212;2023-09-19T02:14:08;16.60;99.90
285;DHT22;127;48.770;9.212;2023-09-19T02:16:39;16.60;99.90
285;DHT22;127;48.770;9.212;2023-09-19T02:19:08;16.60;99.90
285;DHT22;127;48.770;9.212;2023-09-19T02:21:36;16.60;99.90
285;DHT22;127;48.770;9.212;2023-09-19T02:24:06;16.60;99.90
285;DHT22;127;48.770;9.212;2023-09-19T02:26:36;16.50;99.90
285;DHT22;127;48.770;9.212;2023-09-19T02:29:04;16.50;99.90
285;DHT22;127;48.770;9.212;2023-09-19T02:31:33;16.50;99.90
285;DHT22;127;48.770;9.212;2023-09-19T02:34:04;16.50;99.90
285;DHT22;127;48.770;9.212;2023-09-19T02:36:36;16.50;99.90
285;DHT22;127;48.770;9.212;2023-09-19T02:39:05;16.50;99.90
285;DHT22;127;48.770;9.212;2023-09-19T02:41:34;16.50;99.90
285;DHT22;127;48.770;9.212;2023-09-19T02:44:03;16.40;99.90
285;DHT22;127;48.770;9.212;2023-09-19T02:46:33;16.30;99.90
285;DHT22;127;48.770;9.212;2023-09-19T02:49:05;16.30;99.90
285;DHT22;127;48.770;9.212;2023-09-19T02:51:33;16.30;99.90
285;DHT22;127;48.770;9.212;2023-09-19T02:54:03;16.20;99.90
285;DHT22;127;48.770;9.212;2023-09-19T02:56:32;16.20;99.90
285;DHT22;127;48.770;9.212;2023-09-19T02:59:01;16.20;99.90
285;DHT22;127;48.770;9.212;2023-09-19T03:01:30;16.20;99.90
285;DHT22;127;48.770;9.212;2023-09-19T03:03:59;16.20;99.90
285;DHT22;127;48.770;9.212;2023-09-19T03:06:30;16.20;99.90
285;DHT22;127;48.770;9.212;2023-09-19T03:09:02;16.30;99.90
285;DHT22;127;48.770;9.212;2023-09-19T03:11:38;16.30;99.90
285;DHT22;127;48.770;9.212;2023-09-19T03:14:08;16.30;99.90
285;DHT22;127;48.770;9.212;2023-09-19T03:16:38;16.40;99.90
285;DHT22;127;48.770;9.212;2023-09-19T03:19:08;16.40;99.90
285;DHT22;127;48.770;9.212;2023-09-19T03:21:40;16.40;99.90
285;DHT22;127;48.770;9.212;2023-09-19T03:24:09;16.40;99.90
285;DHT22;127;48.770;9.212;2023-09-19T03:26:38;16.40;99.90
285;DHT22;127;48.770;9.212;2023-09-19T03:29:06;16.40;99.90
285;DHT22;127;48.770;9.212;2023-09-19T03:31:39;16.30;99.90
285;DHT22;127;48.770;9.212;2023-09-19T03:34:08;16.30;99.90
285;DHT22;127;48.770;9.212;2023-09-19T03:36:39;16.20;99.90
285;DHT22;127;48.770;9.212;2023-09-19T03:39:10;16.30;99.90
285;DHT22;127;48.770;9.212;2023-09-19T03:41:40;16.30;99.90
285;DHT22;127;48.770;9.212;2023-09-19T03:44:11;16.20;99.90
285;DHT22;127;48.770;9.212;2023-09-19T03:46:40;16.20;99.90
285;DHT22;127;48.770;9.212;2023-09-19T03:49:09;16.30;99.90
285;DHT22;127;48.770;9.212;2023-09-19T03:51:42;16.20;99.90
285;DHT22;127;48.770;9.212;2023-09-19T03:54:11;16.20;99.90
285;DHT22;127;48.770;9.212;2023-09-19T03:56:39;16.20;99.90
285;DHT22;127;48.770;9.212;2023-09-19T03:59:09;16.20;99.90
285;DHT22;127;48.770;9.212;2023-09-19T04:01:37;16.30;99.90
285;DHT22;127;48.770;9.212;2023-09-19T04:04:07;16.20;99.90
285;DHT22;127;48.770;9.212;2023-09-19T04:06:38;16.20;99.90
285;DHT22;127;48.770;9.212;2023-09-19T04:09:09;16.20;99.90
285;DHT22;127;48.770;9.212;2023-09-19T04:11:38;16.10;99.90
285;DHT22;127;48.770;9.212;2023-09-19T04:14:07;16.10;99.90
285;DHT22;127;48.770;9.212;2023-09-19T04:16:36;16.00;99.90
285;DHT22;127;48.770;9.212;2023-09-19T04:19:04;16.00;99.90
285;DHT22;127;48.770;9.212;2023-09-19T04:21:33;15.90;99.90
285;DHT22;127;48.770;9.212;2023-09-19T04:24:02;15.90;99.90
285;DHT22;127;48.770;9.212;2023-09-19T04:26:33;15.80;99.90
285;DHT22;127;48.770;9.212;2023-09-19T04:29:02;15.80;99.90
285;DHT22;127;48.770;9.212;2023-09-19T04:31:32;15.90;99.90
285;DHT22;127;48.770;9.212;2023-09-19T04:34:01;15.90;99.90
285;DHT22;127;48.770;9.212;2023-09-19T04:36:30;15.90;99.90
285;DHT22;127;48.770;9.212;2023-09-19T04:38:59;16.00;99.90
285;DHT22;127;48.770;9.212;2023-09-19T04:41:33;16.00;99.90
285;DHT22;127;48.770;9.212;2023-09-19T04:44:05;16.10;99.90
285;DHT22;127;48.770;9.212;2023-09-19T04:46:33;16.10;99.90
285;DHT22;127;48.770;9.212;2023-09-19T04:49:02;16.10;99.90
285;DHT22;127;48.770;9.212;2023-09-19T04:51:31;16.10;99.90
285;DHT22;127;48.770;9.212;2023-09-19T04:54:02;16.10;99.90
285;DHT22;127;48.770;9.212;2023-09-19T04:56:33;16.10;99.90
285;DHT22;127;48.770;9.212;2023-09-19T04:59:02;16.20;99.90
285;DHT22;127;48.770;9.212;2023-09-19T05:05:00;16.00;99.90
285;DHT22;127;48.770;9.212;2023-09-19T05:14:55;15.70;1.00
285;DHT22;127;48.770;9.212;2023-09-19T05:53:11;15.70;1.00
285;DHT22;127;48.770;9.212;2023-09-19T07:09:32;15.70;1.00
285;DHT22;127;48.770;9.212;2023-09-19T07:15:24;15.70;1.00
285;DHT22;127;48.770;9.212;2023-09-19T07:19:36;15.70;1.00
285;DHT22;127;48.770;9.212;2023-09-19T07:28:23;15.80;1.00
285;DHT22;127;48.770;9.212;2023-09-19T07:48:04;16.50;99.90
285;DHT22;127;48.770;9.212;2023-09-19T07:50:54;16.60;99.90
285;DHT22;127;48.770;9.212;2023-09-19T07:53:57;16.70;99.90
285;DHT22;127;48.770;9.212;2023-09-19T08:00:23;17.40;99.90
285;DHT22;127;48.770;9.212;2023-09-19T08:03:14;17.80;99.90
285;DHT22;127;48.770;9.212;2023-09-19T08:06:07;18.10;99.90
285;DHT22;127;48.770;9.212;2023-09-19T08:08:37;18.40;99.90
285;DHT22;127;48.770;9.212;2023-09-19T08:11:15;19.20;99.90
285;DHT22;127;48.770;9.212;2023-09-19T08:13:51;19.70;99.90
285;DHT22;127;48.770;9.212;2023-09-19T08:16:25;20.30;99.90
285;DHT22;127;48.770;9.212;2023-09-19T08:18:56;21.50;99.90
285;DHT22;127;48.770;9.212;2023-09-19T08:21:25;21.80;99.90
285;DHT22;127;48.770;9.212;2023-09-19T08:23:58;22.00;99.90
285;DHT22;127;48.770;9.212;2023-09-19T08:26:36;21.70;99.90
285;DHT22;127;48.770;9.212;2023-09-19T08:29:05;22.20;99.90
285;DHT22;127;48.770;9.212;2023-09-19T08:31:36;22.60;99.90
285;DHT22;127;48.770;9.212;2023-09-19T08:34:05;22.90;99.90
285;DHT22;127;48.770;9.212;2023-09-19T08:36:34;22.80;99.90
285;DHT22;127;48.770;9.212;2023-09-19T08:39:04;22.50;99.90
285;DHT22;127;48.770;9.212;2023-09-19T08:41:37;23.30;99.90
285;DHT22;127;48.770;9.212;2023-09-19T08:44:06;23.70;99.90
285;DHT22;127;48.770;9.212;2023-09-19T08:46:41;23.30;99.90
285;DHT22;127;48.770;9.212;2023-09-19T08:49:17;23.70;99.90
285;DHT22;127;48.770;9.212;2023-09-19T08:51:56;22.90;99.90
285;DHT22;127;48.770;9.212;2023-09-19T08:54:32;22.30;99.90
285;DHT22;127;48.770;9.212;2023-09-19T08:57:06;22.30;99.90
285;DHT22;127;48.770;9.212;2023-09-19T08:59:38;22.20;99.90
285;DHT22;127;48.770;9.212;2023-09-19T09:02:12;22.20;99.90
285;DHT22;127;48.770;9.212;2023-09-19T09:04:43;22.70;99.90
285;DHT22;127;48.770;9.212;2023-09-19T09:07:13;22.90;99.90
285;DHT22;127;48.770;9.212;2023-09-19T09:09:46;22.30;99.90
285;DHT22;127;48.770;9.212;2023-09-19T09:12:15;22.80;99.90
285;DHT22;127;48.770;9.212;2023-09-19T09:14:45;23.20;99.90
285;DHT22;127;48.770;9.212;2023-09-19T09:17:17;23.80;99.90
285;DHT22;127;48.770;9.212;2023-09-19T09:19:46;23.50;99.90
285;DHT22;127;48.770;9.212;2023-09-19T09:22:14;24.10;99.90
285;DHT22;127;48.770;9.212;2023-09-19T09:24:51;24.10;99.90
285;DHT22;127;48.770;9.212;2023-09-19T09:27:23;22.50;99.90
285;DHT22;127;48.770;9.212;2023-09-19T09:29:55;22.70;99.90
285;DHT22;127;48.770;9.212;2023-09-19T09:32:28;23.10;99.90
285;DHT22;127;48.770;9.212;2023-09-19T09:35:03;22.50;99.90
285;DHT22;127;48.770;9.212;2023-09-19T09:37:35;23.80;99.90
285;DHT22;127;48.770;9.212;2023-09-19T09:40:05;23.80;99.90
285;DHT22;127;48.770;9.212;2023-09-19T09:42:59;23.80;99.90
285;DHT22;127;48.770;9.212;2023-09-19T09:45:29;24.00;99.90
285;DHT22;127;48.770;9.212;2023-09-19T09:48:05;24.30;99.90
285;DHT22;127;48.770;9.212;2023-09-19T09:50:46;25.40;99.90
285;DHT22;127;48.770;9.212;2023-09-19T09:53:25;25.10;99.90
285;DHT22;127;48.770;9.212;2023-09-19T09:56:00;25.20;99.90
285;DHT22;127;48.770;9.212;2023-09-19T09:58:31;25.30;99.90
285;DHT22;127;48.770;9.212;2023-09-19T10:01:01;26.40;99.90
285;DHT22;127;48.770;9.212;2023-09-19T10:03:37;25.40;99.90
285;DHT22;127;48.770;9.212;2023-09-19T10:06:13;25.20;99.90
285;DHT22;127;48.770;9.212;2023-09-19T10:09:01;23.80;99.90
285;DHT22;127;48.770;9.212;2023-09-19T10:11:44;24.00;99.90
285;DHT22;127;48.770;9.212;2023-09-19T10:14:15;23.10;99.90
285;DHT22;127;48.770;9.212;2023-09-19T10:16:49;23.90;99.90
285;DHT22;127;48.770;9.212;2023-09-19T10:19:29;24.70;99.90
285;DHT22;127;48.770;9.212;2023-09-19T10:22:00;25.70;99.90
285;DHT22;127;48.770;9.212;2023-09-19T10:24:30;24.40;99.90
285;DHT22;127;48.770;9.212;2023-09-19T10:27:02;23.40;99.90
285;DHT22;127;48.770;9.212;2023-09-19T10:29:36;22.50;99.90
285;DHT22;127;48.770;9.212;2023-09-19T10:32:07;22.20;99.90
285;DHT22;127;48.770;9.212;2023-09-19T10:34:40;21.90;99.90
285;DHT22;127;48.770;9.212;2023-09-19T10:37:12;21.80;99.90
285;DHT22;127;48.770;9.212;2023-09-19T10:39:46;22.50;99.90
285;DHT22;127;48.770;9.212;2023-09-19T10:42:19;22.40;99.90
285;DHT22;127;48.770;9.212;2023-09-19T10:44:51;22.10;99.90
285;DHT22;127;48.770;9.212;2023-09-19T10:47:21;22.50;99.90
285;DHT22;127;48.770;9.212;2023-09-19T10:49:55;23.40;99.90
285;DHT22;127;48.770;9.212;2023-09-19T10:52:25;22.50;99.90
285;DHT22;127;48.770;9.212;2023-09-19T10:54:56;22.40;99.90
285;DHT22;127;48.770;9.212;2023-09-19T10:57:27;22.60;99.90
285;DHT22;127;48.770;9.212;2023-09-19T11:00:03;22.50;99.90
285;DHT22;127;48.770;9.212;2023-09-19T11:03:17;23.20;99.90
285;DHT22;127;48.770;9.212;2023-09-19T11:06:07;23.40;99.90
285;DHT22;127;48.770;9.212;2023-09-19T11:08:56;24.20;99.90
285;DHT22;127;48.770;9.212;2023-09-19T11:11:48;24.70;99.90
285;DHT22;127;48.770;9.212;2023-09-19T11:14:30;24.00;99.90
285;DHT22;127;48.770;9.212;2023-09-19T11:17:29;23.70;99.90
285;DHT22;127;48.770;9.212;2023-09-19T11:20:20;23.70;99.90
285;DHT22;127;48.770;9.212;2023-09-19T11:23:25;23.20;99.90
285;DHT22;127;48.770;9.212;2023-09-19T11:25:56;24.80;99.90
285;DHT22;127;48.770;9.212;2023-09-19T11:28:34;25.30;99.90
285;DHT22;127;48.770;9.212;2023-09-19T11:37:03;25.20;99.90
285;DHT22;127;48.770;9.212;2023-09-19T11:45:06;23.50;99.90
